Blaydon, United Kingdom
Current Conditions -  °F | °C
As of 10:20 AM on Monday 26 Jan 2015 (Local Time) from EGNT Reporting Station
Few Clouds Few Clouds  
Wind Chill: 32°   Ceiling: Unl
Heat Index: 41°   Visibility: 6mi
Dew Point: 37°   Wind: 18mph
Humidity: 87%   Direction: 280°W
Pressure: 30.06"   Gusts: NA
Location:  54.96°N, 1.71°W
Report Text: EGNT 261020Z 28016KT 9999 FEW030 05/03 Q1018
Loading
Personal Weather Stations






























Interactive Weather Map New forecast layout! Learn more

10-Day Weather Forecast

Advertisements
Track Severe Weather on mobile